Time;durP1;ratioP1;P1;durP2;ratioP2;P2;SDS_P1;SDS_P2;PMS_P1;PMS_P2;Temp;Humidity;BMP_temperature;BMP_pressure;BME280_temperature;BME280_humidity;BME280_pressure;Samples;Min_cycle;Max_cycle;Signal;HPM_P1;HPM_P2
2023/01/25 00:00:04;;;;;;;44.75;20.75;;;;;;;;;;5011150;28;20063;-61
2023/01/25 00:02:30;;;;;;;47.70;21.55;;;;;;;;;;5008836;28;20478;-61
2023/01/25 00:04:55;;;;;;;40.08;18.55;;;;;;;;;;5008399;28;20030;-61
2023/01/25 00:07:20;;;;;;;42.75;20.13;;;;;;;;;;5010753;28;20036;-60
2023/01/25 00:09:46;;;;;;;41.55;19.40;;;;;;;;;;5008078;28;20037;-61
2023/01/25 00:12:11;;;;;;;36.60;17.92;;;;;;;;;;5010440;28;20026;-61
2023/01/25 00:14:37;;;;;;;39.80;18.70;;;;;;;;;;5009349;28;20041;-62
2023/01/25 00:17:02;;;;;;;43.50;19.15;;;;;;;;;;5008030;28;20091;-61
2023/01/25 00:19:28;;;;;;;46.10;20.42;;;;;;;;;;5009612;28;20025;-61
2023/01/25 00:21:53;;;;;;;45.97;20.63;;;;;;;;;;5008920;28;20033;-61
2023/01/25 00:24:21;;;;;;;42.47;19.55;;;;;;;;;;5010601;28;20113;-61
2023/01/25 00:26:47;;;;;;;43.22;19.90;;;;;;;;;;5009202;28;20040;-60
2023/01/25 00:29:13;;;;;;;43.75;20.05;;;;;;;;;;5012203;28;20034;-60
2023/01/25 00:31:56;;;;;;;47.13;21.10;;;;;;;;;;5012782;28;20100;-60
2023/01/25 00:34:24;;;;;;;47.85;21.38;;;;;;;;;;5013345;28;20026;-60
2023/01/25 00:36:50;;;;;;;56.78;23.30;;;;;;;;;;5006286;28;20633;-61
2023/01/25 00:39:15;;;;;;;56.53;23.58;;;;;;;;;;5013240;28;20041;-60
2023/01/25 00:41:42;;;;;;;65.57;25.80;;;;;;;;;;5012136;28;20045;-61
2023/01/25 00:44:07;;;;;;;60.22;24.10;;;;;;;;;;5011655;28;20030;-60
2023/01/25 00:46:32;;;;;;;47.10;21.40;;;;;;;;;;5013386;28;20049;-61
2023/01/25 00:48:58;;;;;;;44.58;19.50;;;;;;;;;;5012470;28;20065;-61
2023/01/25 00:51:24;;;;;;;34.25;17.05;;;;;;;;;;5013003;28;20037;-61
2023/01/25 00:53:50;;;;;;;37.42;16.77;;;;;;;;;;5013045;28;20210;-60
2023/01/25 00:56:16;;;;;;;32.75;16.48;;;;;;;;;;5010932;28;20539;-60
2023/01/25 00:58:41;;;;;;;29.10;14.70;;;;;;;;;;5009176;28;20042;-60
2023/01/25 01:01:07;;;;;;;30.73;15.90;;;;;;;;;;5015110;28;20029;-61
2023/01/25 01:03:33;;;;;;;32.47;16.10;;;;;;;;;;5012310;28;20053;-60
2023/01/25 01:06:04;;;;;;;34.35;17.17;;;;;;;;;;5011638;28;20033;-60
2023/01/25 01:08:32;;;;;;;36.83;17.45;;;;;;;;;;5011583;28;20085;-60
2023/01/25 01:11:00;;;;;;;38.28;18.35;;;;;;;;;;5012204;28;20030;-60
2023/01/25 01:13:26;;;;;;;53.78;22.45;;;;;;;;;;5011653;28;20061;-60
2023/01/25 01:15:51;;;;;;;61.25;25.23;;;;;;;;;;5013415;28;20036;-60
2023/01/25 01:18:17;;;;;;;63.30;25.33;;;;;;;;;;5011342;28;20038;-61
2023/01/25 01:20:48;;;;;;;49.78;20.38;;;;;;;;;;5013317;28;20083;-61
2023/01/25 01:23:14;;;;;;;47.17;20.50;;;;;;;;;;5011570;28;20038;-60
2023/01/25 01:25:39;;;;;;;43.28;19.88;;;;;;;;;;5010105;28;20387;-61
2023/01/25 01:28:04;;;;;;;36.63;17.42;;;;;;;;;;5012643;28;20061;-61
2023/01/25 01:30:30;;;;;;;40.58;18.63;;;;;;;;;;5012871;28;20042;-60
2023/01/25 01:32:55;;;;;;;37.25;16.83;;;;;;;;;;5012100;28;20038;-60
2023/01/25 01:35:20;;;;;;;36.08;17.05;;;;;;;;;;5012636;28;20506;-61
2023/01/25 01:37:46;;;;;;;36.55;17.17;;;;;;;;;;5010665;28;20037;-61
2023/01/25 01:40:13;;;;;;;31.38;15.63;;;;;;;;;;5007297;28;20033;-60
2023/01/25 01:43:05;;;;;;;27.05;14.77;;;;;;;;;;5007193;28;20037;-61
2023/01/25 01:45:42;;;;;;;;;;;;;;;;;;5010750;28;20030;-60
2023/01/25 01:48:27;;;;;;;29.83;14.10;;;;;;;;;;5008994;28;20371;-60
2023/01/25 01:50:59;;;;;;;31.10;14.60;;;;;;;;;;5012441;28;20205;-61
2023/01/25 01:53:25;;;;;;;28.35;14.90;;;;;;;;;;5013683;28;20034;-61
2023/01/25 01:55:54;;;;;;;27.67;14.68;;;;;;;;;;5013428;28;20042;-60
2023/01/25 01:58:19;;;;;;;28.75;14.60;;;;;;;;;;5005126;28;20029;-61
2023/01/25 02:00:45;;;;;;;27.60;14.40;;;;;;;;;;5012239;28;20033;-61
2023/01/25 02:03:12;;;;;;;25.13;14.52;;;;;;;;;;5012663;28;20037;-60
2023/01/25 02:05:57;;;;;;;26.35;14.27;;;;;;;;;;5011075;28;20034;-60
2023/01/25 02:08:25;;;;;;;29.85;15.77;;;;;;;;;;5012790;28;20530;-60
2023/01/25 02:10:50;;;;;;;31.98;16.15;;;;;;;;;;5012233;28;20033;-61
2023/01/25 02:13:17;;;;;;;30.88;15.35;;;;;;;;;;5010306;28;20026;-61
2023/01/25 02:15:50;;;;;;;33.28;15.98;;;;;;;;;;5010711;28;20434;-62
2023/01/25 02:18:18;;;;;;;26.63;14.27;;;;;;;;;;5009964;28;20033;-61
2023/01/25 02:20:45;;;;;;;29.63;15.23;;;;;;;;;;5011583;28;20045;-61
2023/01/25 02:23:49;;;;;;;26.17;14.27;;;;;;;;;;5009864;28;20029;-62
2023/01/25 02:26:16;;;;;;;24.27;12.55;;;;;;;;;;5013117;28;20038;-61
2023/01/25 02:28:53;;;;;;;24.50;12.20;;;;;;;;;;5010321;28;20052;-61
2023/01/25 02:31:18;;;;;;;25.25;13.75;;;;;;;;;;5011298;28;20038;-61
2023/01/25 02:33:44;;;;;;;24.73;13.10;;;;;;;;;;5011375;28;20581;-61
2023/01/25 02:36:18;;;;;;;24.83;12.98;;;;;;;;;;5010953;28;20135;-61
2023/01/25 02:38:52;;;;;;;24.58;13.18;;;;;;;;;;5010416;28;20030;-61
2023/01/25 02:41:30;;;;;;;26.00;13.88;;;;;;;;;;5011348;28;20064;-61
2023/01/25 02:43:55;;;;;;;28.67;14.25;;;;;;;;;;5009475;28;20101;-61
2023/01/25 02:46:26;;;;;;;24.95;13.93;;;;;;;;;;5011310;28;20118;-61
2023/01/25 02:48:53;;;;;;;26.45;14.10;;;;;;;;;;5010902;28;20125;-61
2023/01/25 02:51:18;;;;;;;24.45;13.70;;;;;;;;;;5010362;28;20042;-61
2023/01/25 02:53:44;;;;;;;26.48;14.27;;;;;;;;;;4991684;28;20057;-61
2023/01/25 02:56:09;;;;;;;26.50;14.02;;;;;;;;;;5009011;28;20069;-61
2023/01/25 02:58:35;;;;;;;26.77;13.73;;;;;;;;;;5004633;28;20496;-60
2023/01/25 03:01:00;;;;;;;27.75;14.18;;;;;;;;;;5010234;28;20113;-60
2023/01/25 03:03:26;;;;;;;26.40;14.07;;;;;;;;;;5010970;28;20091;-61
2023/01/25 03:05:51;;;;;;;29.27;15.00;;;;;;;;;;5009046;28;20054;-61
2023/01/25 03:08:16;;;;;;;29.73;15.52;;;;;;;;;;5011746;28;20036;-61
2023/01/25 03:10:42;;;;;;;29.65;14.70;;;;;;;;;;5010150;28;20030;-61
2023/01/25 03:13:07;;;;;;;30.55;15.40;;;;;;;;;;5011934;28;20030;-61
2023/01/25 03:15:32;;;;;;;31.85;15.57;;;;;;;;;;5011197;28;20426;-60
2023/01/25 03:17:58;;;;;;;29.13;14.30;;;;;;;;;;5010161;28;20064;-61
2023/01/25 03:20:23;;;;;;;26.75;13.77;;;;;;;;;;5009509;28;20029;-60
2023/01/25 03:22:48;;;;;;;25.30;13.88;;;;;;;;;;5010671;28;20462;-61
2023/01/25 03:25:14;;;;;;;24.98;13.38;;;;;;;;;;5010316;28;20467;-60
2023/01/25 03:27:39;;;;;;;29.60;14.25;;;;;;;;;;4993365;28;20042;-60
2023/01/25 03:30:07;;;;;;;27.13;14.40;;;;;;;;;;4995875;28;20045;-61
2023/01/25 03:32:32;;;;;;;26.50;13.63;;;;;;;;;;5009733;28;20033;-61
2023/01/25 03:34:58;;;;;;;27.85;14.82;;;;;;;;;;5008061;28;20065;-60
2023/01/25 03:37:26;;;;;;;30.70;14.65;;;;;;;;;;5011037;28;20158;-61
2023/01/25 03:39:51;;;;;;;30.05;14.73;;;;;;;;;;5007467;28;20092;-61
2023/01/25 03:42:19;;;;;;;27.33;14.38;;;;;;;;;;5010175;28;20034;-60
2023/01/25 03:44:44;;;;;;;27.23;14.77;;;;;;;;;;5009268;28;20387;-61
2023/01/25 03:47:09;;;;;;;29.67;15.00;;;;;;;;;;5009725;28;20045;-60
2023/01/25 03:49:35;;;;;;;28.75;14.32;;;;;;;;;;5011431;28;20029;-60
2023/01/25 03:52:00;;;;;;;30.52;15.32;;;;;;;;;;5011271;28;20628;-60
2023/01/25 03:54:26;;;;;;;28.33;14.60;;;;;;;;;;5011381;28;20077;-60
2023/01/25 03:56:51;;;;;;;28.05;15.38;;;;;;;;;;4997792;28;20036;-60
2023/01/25 03:59:16;;;;;;;29.23;15.10;;;;;;;;;;4996388;28;20084;-61
2023/01/25 04:01:42;;;;;;;28.90;14.98;;;;;;;;;;5010865;28;20073;-61
2023/01/25 04:04:07;;;;;;;27.80;14.68;;;;;;;;;;5006243;28;20033;-60
2023/01/25 04:06:33;;;;;;;30.38;16.13;;;;;;;;;;5004521;28;20026;-60
2023/01/25 04:08:59;;;;;;;29.67;15.27;;;;;;;;;;5010433;28;20031;-60
2023/01/25 04:11:24;;;;;;;31.27;15.85;;;;;;;;;;5009809;28;20038;-60
2023/01/25 04:13:50;;;;;;;29.10;15.05;;;;;;;;;;5009801;28;20092;-60
2023/01/25 04:16:15;;;;;;;27.73;15.23;;;;;;;;;;5005152;28;20112;-60
2023/01/25 04:18:40;;;;;;;27.38;14.73;;;;;;;;;;5009697;28;20065;-60
2023/01/25 04:21:06;;;;;;;29.02;15.52;;;;;;;;;;5007770;28;20037;-60
2023/01/25 04:23:31;;;;;;;29.02;14.75;;;;;;;;;;5010258;28;20053;-60
2023/01/25 04:25:59;;;;;;;28.90;16.25;;;;;;;;;;5007405;28;20183;-60
2023/01/25 04:28:26;;;;;;;29.58;15.90;;;;;;;;;;5004622;28;20053;-61
2023/01/25 04:30:55;;;;;;;29.80;15.63;;;;;;;;;;5007262;28;20498;-60
2023/01/25 04:33:20;;;;;;;28.27;16.35;;;;;;;;;;5004454;28;20030;-61
2023/01/25 04:35:46;;;;;;;30.95;16.55;;;;;;;;;;4998031;28;20050;-60
2023/01/25 04:38:12;;;;;;;32.92;17.17;;;;;;;;;;5009195;28;20045;-60
2023/01/25 04:40:38;;;;;;;30.05;16.63;;;;;;;;;;5010448;28;20412;-60
2023/01/25 04:43:03;;;;;;;30.48;17.08;;;;;;;;;;5010642;28;20113;-61
2023/01/25 04:45:29;;;;;;;31.17;17.27;;;;;;;;;;5010346;28;20028;-61
2023/01/25 04:47:55;;;;;;;31.90;16.48;;;;;;;;;;5009356;28;20029;-61
2023/01/25 04:50:21;;;;;;;33.28;15.75;;;;;;;;;;4991991;28;20081;-61
2023/01/25 04:52:46;;;;;;;29.33;15.60;;;;;;;;;;4991293;28;20521;-61
2023/01/25 04:55:12;;;;;;;30.50;15.73;;;;;;;;;;5005623;28;20038;-61
2023/01/25 04:57:37;;;;;;;30.88;16.05;;;;;;;;;;4991712;28;20098;-61
2023/01/25 05:00:03;;;;;;;33.75;16.75;;;;;;;;;;4991044;28;20034;-61
2023/01/25 05:02:28;;;;;;;28.10;15.15;;;;;;;;;;4997996;28;20451;-61
2023/01/25 05:04:54;;;;;;;30.15;15.68;;;;;;;;;;5005639;28;20037;-62
2023/01/25 05:07:19;;;;;;;33.85;16.98;;;;;;;;;;5009262;28;20471;-62
2023/01/25 05:09:44;;;;;;;32.13;15.65;;;;;;;;;;5011369;28;20463;-62
2023/01/25 05:12:13;;;;;;;30.27;16.35;;;;;;;;;;5010589;28;20060;-62
2023/01/25 05:14:38;;;;;;;31.65;15.80;;;;;;;;;;5011390;28;20033;-61
2023/01/25 05:17:07;;;;;;;31.35;16.63;;;;;;;;;;5013172;28;20045;-61
2023/01/25 05:19:33;;;;;;;32.28;16.10;;;;;;;;;;5014052;28;20394;-61
2023/01/25 05:21:59;;;;;;;29.65;16.02;;;;;;;;;;5014171;28;20113;-61
2023/01/25 05:24:27;;;;;;;28.42;15.68;;;;;;;;;;5014616;28;20088;-61
2023/01/25 05:26:59;;;;;;;28.05;15.00;;;;;;;;;;5011033;28;20036;-63
2023/01/25 05:29:26;;;;;;;30.70;16.05;;;;;;;;;;5014790;28;20030;-62
2023/01/25 05:31:51;;;;;;;28.90;15.30;;;;;;;;;;5013931;28;20042;-62
2023/01/25 05:34:17;;;;;;;30.30;16.75;;;;;;;;;;5014733;28;20033;-62
2023/01/25 05:36:42;;;;;;;29.17;16.40;;;;;;;;;;5013449;28;20479;-61
2023/01/25 05:39:08;;;;;;;31.35;15.90;;;;;;;;;;5012737;28;20075;-62
2023/01/25 05:41:33;;;;;;;30.55;16.75;;;;;;;;;;5013536;28;20036;-62
2023/01/25 05:43:59;;;;;;;31.98;17.17;;;;;;;;;;5013936;28;20455;-62
2023/01/25 05:46:26;;;;;;;34.38;17.75;;;;;;;;;;5014291;28;20080;-61
2023/01/25 05:48:52;;;;;;;32.20;16.45;;;;;;;;;;5012032;28;20045;-62
2023/01/25 05:51:17;;;;;;;30.90;15.77;;;;;;;;;;5013715;28;20041;-61
2023/01/25 05:53:42;;;;;;;31.35;16.60;;;;;;;;;;5013581;28;20443;-61
2023/01/25 05:56:11;;;;;;;34.05;17.20;;;;;;;;;;5011010;28;20537;-61
2023/01/25 05:58:37;;;;;;;32.10;17.15;;;;;;;;;;4994881;28;20068;-61
2023/01/25 06:01:05;;;;;;;36.92;17.15;;;;;;;;;;4993484;28;20436;-61
2023/01/25 06:03:31;;;;;;;31.42;16.15;;;;;;;;;;4995175;28;20382;-61
2023/01/25 06:05:58;;;;;;;32.97;17.23;;;;;;;;;;5013132;28;20037;-61
2023/01/25 06:08:24;;;;;;;32.15;16.42;;;;;;;;;;5009494;28;20037;-61
2023/01/25 06:10:49;;;;;;;31.17;16.70;;;;;;;;;;5013800;28;20394;-62
2023/01/25 06:13:15;;;;;;;32.72;17.35;;;;;;;;;;5012390;28;20328;-61
2023/01/25 06:15:41;;;;;;;34.58;16.98;;;;;;;;;;5013017;28;20038;-61
2023/01/25 06:18:06;;;;;;;33.55;16.92;;;;;;;;;;5012896;28;20030;-61
2023/01/25 06:20:33;;;;;;;30.02;15.82;;;;;;;;;;5013995;28;20057;-62
2023/01/25 06:22:58;;;;;;;34.53;16.92;;;;;;;;;;5011812;28;20104;-62
2023/01/25 06:25:23;;;;;;;32.40;16.40;;;;;;;;;;5010703;28;20061;-62
2023/01/25 06:27:49;;;;;;;35.20;17.83;;;;;;;;;;5013124;28;20463;-62
2023/01/25 06:30:14;;;;;;;33.03;16.88;;;;;;;;;;5013053;28;20482;-62
2023/01/25 06:32:40;;;;;;;34.45;17.15;;;;;;;;;;5011079;28;20042;-61
2023/01/25 06:35:05;;;;;;;30.60;15.18;;;;;;;;;;5011686;28;20088;-61
2023/01/25 06:37:31;;;;;;;32.30;15.95;;;;;;;;;;5013269;28;20073;-61
2023/01/25 06:39:56;;;;;;;29.63;14.27;;;;;;;;;;5011572;28;20038;-62
2023/01/25 06:42:25;;;;;;;31.40;14.75;;;;;;;;;;5013484;28;20103;-62
2023/01/25 06:44:50;;;;;;;31.33;15.48;;;;;;;;;;5012131;28;20582;-62
2023/01/25 06:47:15;;;;;;;31.52;15.75;;;;;;;;;;5011507;28;20120;-62
2023/01/25 06:49:41;;;;;;;31.85;16.20;;;;;;;;;;5011024;28;20045;-61
2023/01/25 06:52:06;;;;;;;34.70;17.17;;;;;;;;;;5012484;28;20038;-61
2023/01/25 06:54:32;;;;;;;32.25;15.75;;;;;;;;;;5013325;28;20095;-61
2023/01/25 06:56:58;;;;;;;37.03;17.83;;;;;;;;;;5011363;28;20843;-61
2023/01/25 06:59:23;;;;;;;30.50;14.25;;;;;;;;;;5013200;28;20026;-61
2023/01/25 07:01:48;;;;;;;33.85;16.17;;;;;;;;;;5011087;28;20038;-61
2023/01/25 07:04:14;;;;;;;31.17;15.63;;;;;;;;;;5012086;28;20030;-61
2023/01/25 07:06:39;;;;;;;32.78;15.30;;;;;;;;;;5012011;28;20037;-61
2023/01/25 07:09:07;;;;;;;32.90;16.33;;;;;;;;;;5011733;28;20036;-61
2023/01/25 07:11:33;;;;;;;33.42;16.13;;;;;;;;;;5009866;28;20113;-61
2023/01/25 07:13:59;;;;;;;32.50;15.98;;;;;;;;;;5012173;28;20422;-60
2023/01/25 07:16:25;;;;;;;38.42;16.52;;;;;;;;;;5010060;28;20038;-61
2023/01/25 07:18:50;;;;;;;33.65;15.75;;;;;;;;;;5012928;28;20038;-61
2023/01/25 07:21:21;;;;;;;33.65;16.05;;;;;;;;;;5011950;28;20033;-61
2023/01/25 07:23:48;;;;;;;34.47;16.70;;;;;;;;;;5012421;28;20026;-62
2023/01/25 07:26:16;;;;;;;34.55;15.57;;;;;;;;;;5010506;28;20084;-61
2023/01/25 07:28:42;;;;;;;35.55;16.52;;;;;;;;;;5009107;28;20045;-61
2023/01/25 07:31:08;;;;;;;35.60;16.08;;;;;;;;;;5011871;28;20034;-60
2023/01/25 07:33:34;;;;;;;34.53;16.52;;;;;;;;;;5012038;28;20088;-60
2023/01/25 07:36:00;;;;;;;34.03;15.73;;;;;;;;;;5009929;28;20398;-61
2023/01/25 07:38:26;;;;;;;36.05;17.13;;;;;;;;;;5009708;28;20112;-61
2023/01/25 07:40:52;;;;;;;36.20;16.38;;;;;;;;;;5012615;28;20140;-62
2023/01/25 07:43:18;;;;;;;36.00;16.63;;;;;;;;;;5011408;28;20053;-61
2023/01/25 07:45:47;;;;;;;34.90;16.73;;;;;;;;;;5012811;28;20044;-62
2023/01/25 07:48:13;;;;;;;34.08;16.48;;;;;;;;;;5010104;28;20029;-63
2023/01/25 07:50:40;;;;;;;36.83;17.42;;;;;;;;;;5012484;28;20356;-62
2023/01/25 07:53:05;;;;;;;38.65;17.45;;;;;;;;;;5011375;28;20124;-62
2023/01/25 07:55:31;;;;;;;37.45;17.08;;;;;;;;;;5012240;28;20040;-62
2023/01/25 07:57:56;;;;;;;37.33;17.85;;;;;;;;;;5008480;28;20036;-62
2023/01/25 08:00:22;;;;;;;40.42;18.40;;;;;;;;;;5010590;28;20033;-61
2023/01/25 08:02:51;;;;;;;38.42;18.40;;;;;;;;;;5012218;28;20026;-62
2023/01/25 08:05:16;;;;;;;38.47;17.73;;;;;;;;;;5010914;28;20030;-61
2023/01/25 08:07:41;;;;;;;39.67;18.67;;;;;;;;;;5011911;28;20076;-62
2023/01/25 08:10:07;;;;;;;43.28;19.42;;;;;;;;;;5010003;28;20463;-62
2023/01/25 08:12:33;;;;;;;42.70;18.98;;;;;;;;;;5012904;28;20041;-62
2023/01/25 08:14:59;;;;;;;41.97;19.63;;;;;;;;;;5012833;28;20085;-62
2023/01/25 08:17:30;;;;;;;47.05;20.40;;;;;;;;;;5013800;28;20101;-62
2023/01/25 08:19:57;;;;;;;45.67;19.35;;;;;;;;;;5012587;28;20026;-62
2023/01/25 08:22:23;;;;;;;39.33;17.27;;;;;;;;;;5013464;28;20037;-63
2023/01/25 08:24:48;;;;;;;44.63;19.77;;;;;;;;;;5012926;28;20034;-62
2023/01/25 08:27:14;;;;;;;45.08;18.30;;;;;;;;;;5012095;28;20116;-62
2023/01/25 08:29:39;;;;;;;43.28;18.92;;;;;;;;;;5009910;28;20037;-63
2023/01/25 08:32:06;;;;;;;44.85;19.48;;;;;;;;;;5011937;28;20030;-62
2023/01/25 08:34:32;;;;;;;40.58;17.42;;;;;;;;;;5012244;28;20396;-62
2023/01/25 08:36:57;;;;;;;39.90;19.88;;;;;;;;;;5011522;28;20475;-62
2023/01/25 08:39:23;;;;;;;42.08;19.40;;;;;;;;;;5011004;28;20065;-63
2023/01/25 08:41:48;;;;;;;47.40;20.73;;;;;;;;;;5010500;28;20080;-62
2023/01/25 08:44:13;;;;;;;44.97;20.75;;;;;;;;;;5010500;28;20503;-62
2023/01/25 08:46:39;;;;;;;42.30;19.85;;;;;;;;;;5011506;28;20088;-61
2023/01/25 08:49:04;;;;;;;45.00;20.15;;;;;;;;;;5011013;28;20030;-62
2023/01/25 08:51:31;;;;;;;46.80;21.23;;;;;;;;;;5013605;28;20069;-62
2023/01/25 08:54:00;;;;;;;41.90;20.42;;;;;;;;;;5015355;28;20025;-61
2023/01/25 08:56:25;;;;;;;45.95;20.83;;;;;;;;;;5015058;28;20129;-61
2023/01/25 08:58:51;;;;;;;42.58;20.23;;;;;;;;;;5014498;28;20457;-62
2023/01/25 09:01:18;;;;;;;41.42;20.25;;;;;;;;;;5014527;28;20030;-61
2023/01/25 09:03:46;;;;;;;44.28;20.65;;;;;;;;;;5014912;28;20022;-61
2023/01/25 09:06:12;;;;;;;43.92;20.95;;;;;;;;;;5014336;28;20091;-61
2023/01/25 09:08:38;;;;;;;44.90;19.85;;;;;;;;;;5012360;28;20026;-61
2023/01/25 09:11:09;;;;;;;40.92;19.50;;;;;;;;;;5014561;28;20171;-62
2023/01/25 09:13:34;;;;;;;;;;;;;;;;;;5015554;28;20037;-61
2023/01/25 09:16:05;;;;;;;40.42;18.27;;;;;;;;;;5014899;28;19909;-61
2023/01/25 09:18:32;;;;;;;42.47;20.08;;;;;;;;;;5004992;28;20400;-62
2023/01/25 09:20:58;;;;;;;45.47;20.30;;;;;;;;;;5004456;28;20049;-61
2023/01/25 09:23:24;;;;;;;44.95;20.58;;;;;;;;;;5011623;28;20037;-61
2023/01/25 09:25:59;;;;;;;42.47;19.40;;;;;;;;;;5015088;28;20026;-64
2023/01/25 09:28:26;;;;;;;41.60;19.38;;;;;;;;;;4994448;28;20037;-61
2023/01/25 09:30:56;;;;;;;42.42;20.30;;;;;;;;;;5005079;28;20541;-60
2023/01/25 09:33:31;;;;;;;49.17;21.27;;;;;;;;;;5014094;28;20055;-61
2023/01/25 09:35:56;;;;;;;48.35;21.98;;;;;;;;;;5014564;28;20108;-62
2023/01/25 09:38:22;;;;;;;46.53;21.17;;;;;;;;;;5012538;28;20065;-62
2023/01/25 09:41:14;;;;;;;49.38;21.50;;;;;;;;;;5012656;28;20034;-62
2023/01/25 09:44:25;;;;;;;47.95;21.23;;;;;;;;;;5013642;28;20497;-62
2023/01/25 09:46:55;;;;;;;46.67;21.53;;;;;;;;;;5014609;28;20415;-61
2023/01/25 09:49:39;;;;;;;45.65;20.35;;;;;;;;;;5012518;28;20653;-62
2023/01/25 09:52:26;;;;;;;46.85;20.88;;;;;;;;;;5011942;28;20037;-61
2023/01/25 09:54:57;;;;;;;48.13;22.10;;;;;;;;;;5014618;28;20111;-63
2023/01/25 09:57:31;;;;;;;46.22;21.83;;;;;;;;;;5008864;28;20026;-60
2023/01/25 10:00:02;;;;;;;45.15;21.30;;;;;;;;;;4995729;28;20113;-62
2023/01/25 10:02:48;;;;;;;45.28;21.35;;;;;;;;;;5009930;28;20466;-62
2023/01/25 10:05:24;;;;;;;49.08;20.65;;;;;;;;;;5013135;28;20033;-62
2023/01/25 10:08:07;;;;;;;49.03;20.92;;;;;;;;;;5014285;28;20112;-61
2023/01/25 10:10:40;;;;;;;50.25;21.90;;;;;;;;;;5012151;28;20042;-61
2023/01/25 10:13:11;;;;;;;45.42;21.63;;;;;;;;;;5013371;28;20455;-61
2023/01/25 10:15:42;;;;;;;44.58;19.80;;;;;;;;;;5014012;28;20049;-61
2023/01/25 10:18:22;;;;;;;48.25;21.27;;;;;;;;;;5013045;28;20072;-61
2023/01/25 10:21:09;;;;;;;42.33;19.27;;;;;;;;;;5012871;28;20044;-61
2023/01/25 10:23:40;;;;;;;50.15;21.25;;;;;;;;;;5014195;28;20092;-61
2023/01/25 10:26:21;;;;;;;49.55;21.02;;;;;;;;;;5013182;28;20030;-61
2023/01/25 10:29:12;;;;;;;41.28;18.30;;;;;;;;;;5012716;28;20483;-60
2023/01/25 10:31:37;;;;;;;46.67;20.23;;;;;;;;;;5011537;28;20096;-61
2023/01/25 10:34:15;;;;;;;51.10;21.98;;;;;;;;;;5013616;28;20419;-62
2023/01/25 10:36:41;;;;;;;47.75;21.45;;;;;;;;;;5013922;28;20065;-62
2023/01/25 10:39:08;;;;;;;48.35;21.65;;;;;;;;;;5012765;28;20034;-60
2023/01/25 10:41:42;;;;;;;50.60;22.75;;;;;;;;;;5012135;28;20033;-63
2023/01/25 10:44:20;;;;;;;54.70;22.98;;;;;;;;;;5011812;28;20041;-61
2023/01/25 10:47:18;;;;;;;50.78;23.08;;;;;;;;;;5013401;28;20038;-61
2023/01/25 10:49:58;;;;;;;51.13;23.10;;;;;;;;;;5013333;28;20091;-61
2023/01/25 10:52:26;;;;;;;56.35;22.85;;;;;;;;;;5010065;28;20124;-61
2023/01/25 10:55:16;;;;;;;51.53;22.42;;;;;;;;;;5013324;28;20057;-62
2023/01/25 10:57:43;;;;;;;48.42;22.10;;;;;;;;;;5006163;28;20460;-62
2023/01/25 11:00:28;;;;;;;53.13;23.27;;;;;;;;;;4992334;28;20041;-62
2023/01/25 11:02:54;;;;;;;50.38;22.77;;;;;;;;;;4999229;28;20463;-61
2023/01/25 11:05:27;;;;;;;57.60;24.52;;;;;;;;;;5011648;28;20066;-62
2023/01/25 11:07:53;;;;;;;50.30;22.63;;;;;;;;;;5013501;28;20380;-61
2023/01/25 11:10:30;;;;;;;50.35;23.65;;;;;;;;;;5011364;28;20455;-62
2023/01/25 11:13:14;;;;;;;51.72;24.08;;;;;;;;;;5012903;28;20487;-60
2023/01/25 11:15:48;;;;;;;51.95;22.85;;;;;;;;;;5012686;28;20468;-61
2023/01/25 11:18:27;;;;;;;47.47;22.45;;;;;;;;;;5012214;28;20392;-61
2023/01/25 11:21:13;;;;;;;55.30;24.50;;;;;;;;;;5010628;28;20073;-61
2023/01/25 11:23:39;;;;;;;51.60;23.92;;;;;;;;;;5011192;28;20033;-62
2023/01/25 11:26:12;;;;;;;52.30;23.67;;;;;;;;;;5012771;28;20383;-62
2023/01/25 11:28:37;;;;;;;53.00;23.02;;;;;;;;;;5009363;28;20041;-62
2023/01/25 11:31:07;;;;;;;59.42;24.40;;;;;;;;;;4998431;28;20123;-61
2023/01/25 11:33:33;;;;;;;51.55;23.13;;;;;;;;;;5012402;28;20117;-62
2023/01/25 11:36:16;;;;;;;54.30;24.30;;;;;;;;;;5012143;28;20149;-61
2023/01/25 11:38:57;;;;;;;52.67;23.00;;;;;;;;;;5012765;28;20026;-62
2023/01/25 11:41:29;;;;;;;53.75;24.08;;;;;;;;;;5010347;28;20036;-62
2023/01/25 11:43:58;;;;;;;53.60;24.58;;;;;;;;;;5010001;28;20036;-62
2023/01/25 11:46:55;;;;;;;50.25;22.50;;;;;;;;;;5011629;28;20040;-62
2023/01/25 11:49:48;;;;;;;48.08;20.77;;;;;;;;;;5011707;28;20088;-61
2023/01/25 11:52:29;;;;;;;56.75;22.58;;;;;;;;;;5009360;28;20041;-61
2023/01/25 11:55:20;;;;;;;50.80;22.92;;;;;;;;;;5012537;28;20256;-61
2023/01/25 11:58:18;;;;;;;53.85;23.20;;;;;;;;;;5012617;28;20034;-60
2023/01/25 12:00:49;;;;;;;54.67;24.13;;;;;;;;;;5011139;28;20414;-61
2023/01/25 12:03:57;;;;;;;57.72;25.25;;;;;;;;;;5010521;28;20042;-63
2023/01/25 12:06:31;;;;;;;55.80;23.63;;;;;;;;;;5011791;28;20037;-62
2023/01/25 12:09:12;;;;;;;56.20;23.60;;;;;;;;;;5011942;28;20040;-62
2023/01/25 12:12:05;;;;;;;43.85;18.75;;;;;;;;;;5009624;28;20037;-62
2023/01/25 12:14:58;;;;;;;49.20;22.35;;;;;;;;;;5011192;28;20030;-62
2023/01/25 12:17:46;;;;;;;51.95;23.00;;;;;;;;;;5009810;28;20079;-62
2023/01/25 12:20:38;;;;;;;51.50;22.48;;;;;;;;;;5009431;28;20030;-62
2023/01/25 12:23:22;;;;;;;50.70;21.67;;;;;;;;;;5010527;28;20049;-63
2023/01/25 12:26:05;;;;;;;56.78;23.30;;;;;;;;;;5011621;28;20097;-63
2023/01/25 12:28:37;;;;;;;46.00;18.10;;;;;;;;;;5008839;28;20041;-62
2023/01/25 12:31:23;;;;;;;52.83;23.42;;;;;;;;;;4998945;28;20040;-63
2023/01/25 12:34:03;;;;;;;52.90;23.52;;;;;;;;;;5010727;28;20378;-62
2023/01/25 12:36:43;;;;;;;54.60;24.60;;;;;;;;;;5010958;28;20396;-62
2023/01/25 12:39:16;;;;;;;55.63;23.95;;;;;;;;;;5010691;28;20033;-60
2023/01/25 12:41:49;;;;;;;52.28;23.25;;;;;;;;;;5007467;28;20562;-63
2023/01/25 12:44:29;;;;;;;54.85;23.33;;;;;;;;;;5010016;28;20030;-63
2023/01/25 12:47:15;;;;;;;55.30;23.10;;;;;;;;;;5011723;28;20092;-62
2023/01/25 12:50:05;;;;;;;55.20;24.02;;;;;;;;;;5010121;28;20394;-62
2023/01/25 12:52:38;;;;;;;55.13;22.25;;;;;;;;;;5009672;28;20467;-62
2023/01/25 12:55:16;;;;;;;51.15;22.15;;;;;;;;;;5011690;28;20034;-62
2023/01/25 12:57:57;;;;;;;54.47;23.05;;;;;;;;;;5011690;28;20036;-62
2023/01/25 13:00:34;;;;;;;47.97;22.67;;;;;;;;;;5003548;28;20121;-62
2023/01/25 13:03:11;;;;;;;51.78;21.80;;;;;;;;;;4992069;28;20034;-62
2023/01/25 13:05:47;;;;;;;49.95;21.15;;;;;;;;;;4991051;28;20034;-63
2023/01/25 13:08:33;;;;;;;52.47;23.15;;;;;;;;;;4991894;28;20057;-61
2023/01/25 13:11:14;;;;;;;56.33;23.52;;;;;;;;;;5010559;28;20038;-61
2023/01/25 13:13:40;;;;;;;54.92;22.88;;;;;;;;;;5011070;28;20026;-61
2023/01/25 13:16:29;;;;;;;38.50;17.77;;;;;;;;;;5011486;28;20079;-62
2023/01/25 13:18:56;;;;;;;49.13;19.17;;;;;;;;;;5010106;28;20061;-61
2023/01/25 13:21:45;;;;;;;42.92;19.85;;;;;;;;;;5009645;28;20026;-62
2023/01/25 13:24:24;;;;;;;49.00;22.17;;;;;;;;;;5010125;28;20467;-61
2023/01/25 13:27:22;;;;;;;44.88;20.58;;;;;;;;;;5010190;28;20535;-62
2023/01/25 13:29:54;;;;;;;54.03;22.20;;;;;;;;;;5009061;28;20045;-62
2023/01/25 13:32:32;;;;;;;48.40;20.38;;;;;;;;;;5010634;28;20038;-63
2023/01/25 13:34:58;;;;;;;48.10;21.83;;;;;;;;;;5011442;28;20427;-62
2023/01/25 13:37:32;;;;;;;46.83;20.23;;;;;;;;;;5011730;28;20050;-63
2023/01/25 13:39:59;;;;;;;49.60;22.27;;;;;;;;;;5011641;28;20030;-62
2023/01/25 13:42:29;;;;;;;50.05;22.23;;;;;;;;;;5014317;28;20030;-62
2023/01/25 13:45:00;;;;;;;50.50;23.10;;;;;;;;;;5013921;28;20022;-62
2023/01/25 13:47:29;;;;;;;57.90;25.08;;;;;;;;;;5014524;28;20042;-62
2023/01/25 13:50:07;;;;;;;61.38;24.63;;;;;;;;;;5011856;28;20064;-61
2023/01/25 13:52:32;;;;;;;57.97;23.98;;;;;;;;;;5014560;28;20076;-62
2023/01/25 13:54:59;;;;;;;46.58;20.02;;;;;;;;;;5015174;28;20053;-63
2023/01/25 13:57:30;;;;;;;54.85;22.80;;;;;;;;;;5013047;28;20038;-61
2023/01/25 13:59:59;;;;;;;;;;;;;;;;;;5009368;28;20486;-61
2023/01/25 14:02:26;;;;;;;41.42;16.92;;;;;;;;;;4994236;28;20008;-61
2023/01/25 14:04:52;;;;;;;51.40;20.33;;;;;;;;;;4994614;28;20076;-62
2023/01/25 14:07:20;;;;;;;62.78;25.02;;;;;;;;;;4994346;28;20023;-63
2023/01/25 14:09:47;;;;;;;65.53;25.20;;;;;;;;;;5007405;28;20121;-62
2023/01/25 14:12:49;;;;;;;64.70;24.83;;;;;;;;;;5014072;28;20447;-63
2023/01/25 14:15:19;;;;;;;57.95;22.60;;;;;;;;;;5014786;28;20042;-62
2023/01/25 14:17:45;;;;;;;64.38;25.63;;;;;;;;;;5014417;28;20026;-62
2023/01/25 14:20:19;;;;;;;52.83;21.27;;;;;;;;;;5002763;28;20050;-63
2023/01/25 14:22:49;;;;;;;54.95;22.55;;;;;;;;;;4994868;28;20065;-62
2023/01/25 14:25:18;;;;;;;61.03;24.27;;;;;;;;;;4995406;28;20109;-62
2023/01/25 14:27:47;;;;;;;61.92;24.85;;;;;;;;;;4992332;28;20380;-60
2023/01/25 14:30:32;;;;;;;56.15;23.65;;;;;;;;;;5009989;28;20117;-61
2023/01/25 14:33:14;;;;;;;66.55;25.60;;;;;;;;;;5013640;28;20034;-61
2023/01/25 14:35:44;;;;;;;60.80;25.65;;;;;;;;;;5004893;28;20069;-62